sensor_id;sensor_type;location;lat;lon;timestamp;P1;durP1;ratioP1;P2;durP2;ratioP2
1959;SDS011;980;43.794;11.212;2022-11-18T00:01:12;3.00;;;3.00;;
1959;SDS011;980;43.794;11.212;2022-11-18T00:03:38;5.75;;;2.00;;
1959;SDS011;980;43.794;11.212;2022-11-18T00:06:04;6.25;;;3.50;;
1959;SDS011;980;43.794;11.212;2022-11-18T00:08:30;2.00;;;2.00;;
1959;SDS011;980;43.794;11.212;2022-11-18T00:10:56;3.50;;;2.00;;
1959;SDS011;980;43.794;11.212;2022-11-18T00:13:21;3.00;;;1.75;;
1959;SDS011;980;43.794;11.212;2022-11-18T00:16:08;3.50;;;2.00;;
1959;SDS011;980;43.794;11.212;2022-11-18T00:18:34;5.00;;;5.00;;
1959;SDS011;980;43.794;11.212;2022-11-18T00:21:08;3.00;;;3.00;;
1959;SDS011;980;43.794;11.212;2022-11-18T00:23:34;4.00;;;3.00;;
1959;SDS011;980;43.794;11.212;2022-11-18T00:26:10;6.00;;;4.00;;
1959;SDS011;980;43.794;11.212;2022-11-18T00:28:36;2.00;;;2.00;;
1959;SDS011;980;43.794;11.212;2022-11-18T00:31:02;1.00;;;1.00;;
1959;SDS011;980;43.794;11.212;2022-11-18T00:33:28;2.00;;;2.00;;
1959;SDS011;980;43.794;11.212;2022-11-18T00:35:53;1.50;;;1.50;;
1959;SDS011;980;43.794;11.212;2022-11-18T00:38:19;2.00;;;2.00;;
1959;SDS011;980;43.794;11.212;2022-11-18T00:40:44;5.00;;;3.00;;
1959;SDS011;980;43.794;11.212;2022-11-18T00:43:09;4.00;;;1.75;;
1959;SDS011;980;43.794;11.212;2022-11-18T00:45:35;2.00;;;1.75;;
1959;SDS011;980;43.794;11.212;2022-11-18T00:48:00;2.50;;;2.00;;
1959;SDS011;980;43.794;11.212;2022-11-18T00:50:26;2.75;;;1.75;;
1959;SDS011;980;43.794;11.212;2022-11-18T00:52:52;3.00;;;2.00;;
1959;SDS011;980;43.794;11.212;2022-11-18T00:55:17;2.00;;;2.00;;
1959;SDS011;980;43.794;11.212;2022-11-18T00:57:42;2.25;;;2.00;;
1959;SDS011;980;43.794;11.212;2022-11-18T01:00:08;5.75;;;4.00;;
1959;SDS011;980;43.794;11.212;2022-11-18T01:02:33;4.00;;;3.00;;
1959;SDS011;980;43.794;11.212;2022-11-18T01:04:58;6.00;;;4.00;;
1959;SDS011;980;43.794;11.212;2022-11-18T01:07:24;8.25;;;5.00;;
1959;SDS011;980;43.794;11.212;2022-11-18T01:09:49;6.75;;;6.50;;
1959;SDS011;980;43.794;11.212;2022-11-18T01:12:14;10.50;;;6.75;;
1959;SDS011;980;43.794;11.212;2022-11-18T01:14:58;13.25;;;10.75;;
1959;SDS011;980;43.794;11.212;2022-11-18T01:17:23;14.00;;;10.75;;
1959;SDS011;980;43.794;11.212;2022-11-18T01:19:49;13.25;;;12.50;;
1959;SDS011;980;43.794;11.212;2022-11-18T01:22:14;21.25;;;14.75;;
1959;SDS011;980;43.794;11.212;2022-11-18T01:24:39;21.75;;;18.25;;
1959;SDS011;980;43.794;11.212;2022-11-18T01:27:04;19.50;;;17.75;;
1959;SDS011;980;43.794;11.212;2022-11-18T01:29:30;18.50;;;15.50;;
1959;SDS011;980;43.794;11.212;2022-11-18T01:31:55;20.75;;;16.50;;
1959;SDS011;980;43.794;11.212;2022-11-18T01:34:20;16.00;;;16.00;;
1959;SDS011;980;43.794;11.212;2022-11-18T01:36:46;16.50;;;14.50;;
1959;SDS011;980;43.794;11.212;2022-11-18T01:39:11;20.00;;;17.75;;
1959;SDS011;980;43.794;11.212;2022-11-18T01:41:36;19.75;;;17.75;;
1959;SDS011;980;43.794;11.212;2022-11-18T01:44:03;21.75;;;18.00;;
1959;SDS011;980;43.794;11.212;2022-11-18T01:46:30;23.75;;;22.25;;
1959;SDS011;980;43.794;11.212;2022-11-18T01:51:22;30.25;;;26.25;;
1959;SDS011;980;43.794;11.212;2022-11-18T01:53:50;28.75;;;27.00;;
1959;SDS011;980;43.794;11.212;2022-11-18T01:56:19;31.50;;;29.50;;
1959;SDS011;980;43.794;11.212;2022-11-18T01:58:48;32.00;;;31.00;;
1959;SDS011;980;43.794;11.212;2022-11-18T02:01:14;36.25;;;33.00;;
1959;SDS011;980;43.794;11.212;2022-11-18T02:03:39;41.75;;;37.50;;
1959;SDS011;980;43.794;11.212;2022-11-18T02:06:06;30.50;;;30.00;;
1959;SDS011;980;43.794;11.212;2022-11-18T02:08:33;41.50;;;38.75;;
1959;SDS011;980;43.794;11.212;2022-11-18T02:11:01;36.75;;;36.50;;
1959;SDS011;980;43.794;11.212;2022-11-18T02:13:27;35.50;;;33.50;;
1959;SDS011;980;43.794;11.212;2022-11-18T02:23:53;46.25;;;37.75;;
1959;SDS011;980;43.794;11.212;2022-11-18T02:29:02;44.00;;;37.00;;
1959;SDS011;980;43.794;11.212;2022-11-18T02:31:33;42.75;;;40.75;;
1959;SDS011;980;43.794;11.212;2022-11-18T02:39:32;43.25;;;39.25;;
1959;SDS011;980;43.794;11.212;2022-11-18T02:41:58;40.75;;;37.50;;
1959;SDS011;980;43.794;11.212;2022-11-18T02:44:26;37.75;;;35.25;;
1959;SDS011;980;43.794;11.212;2022-11-18T02:46:54;40.50;;;37.50;;
1959;SDS011;980;43.794;11.212;2022-11-18T02:49:23;45.25;;;40.00;;
1959;SDS011;980;43.794;11.212;2022-11-18T02:51:51;40.75;;;38.75;;
1959;SDS011;980;43.794;11.212;2022-11-18T02:54:17;40.50;;;36.00;;
1959;SDS011;980;43.794;11.212;2022-11-18T02:56:44;42.75;;;35.75;;
1959;SDS011;980;43.794;11.212;2022-11-18T02:59:10;41.50;;;38.25;;
1959;SDS011;980;43.794;11.212;2022-11-18T03:01:35;43.00;;;37.25;;
1959;SDS011;980;43.794;11.212;2022-11-18T03:04:01;43.00;;;37.75;;
1959;SDS011;980;43.794;11.212;2022-11-18T03:11:43;34.25;;;33.00;;
1959;SDS011;980;43.794;11.212;2022-11-18T03:14:23;31.50;;;30.00;;
1959;SDS011;980;43.794;11.212;2022-11-18T03:19:26;31.75;;;28.00;;
1959;SDS011;980;43.794;11.212;2022-11-18T03:21:57;28.25;;;24.00;;
1959;SDS011;980;43.794;11.212;2022-11-18T03:24:28;28.00;;;21.00;;
1959;SDS011;980;43.794;11.212;2022-11-18T03:27:09;20.25;;;19.00;;
1959;SDS011;980;43.794;11.212;2022-11-18T03:29:39;20.50;;;17.50;;
1959;SDS011;980;43.794;11.212;2022-11-18T03:32:05;22.50;;;18.00;;
1959;SDS011;980;43.794;11.212;2022-11-18T03:34:38;15.50;;;12.50;;
1959;SDS011;980;43.794;11.212;2022-11-18T03:37:08;8.00;;;6.50;;
1959;SDS011;980;43.794;11.212;2022-11-18T03:39:35;17.00;;;13.00;;
1959;SDS011;980;43.794;11.212;2022-11-18T03:42:04;11.50;;;9.50;;
1959;SDS011;980;43.794;11.212;2022-11-18T03:44:33;9.50;;;9.50;;
1959;SDS011;980;43.794;11.212;2022-11-18T03:47:01;13.25;;;9.25;;
1959;SDS011;980;43.794;11.212;2022-11-18T03:49:30;13.00;;;13.00;;
1959;SDS011;980;43.794;11.212;2022-11-18T03:52:00;25.50;;;21.75;;
1959;SDS011;980;43.794;11.212;2022-11-18T03:54:29;22.75;;;22.25;;
1959;SDS011;980;43.794;11.212;2022-11-18T03:57:00;20.50;;;18.00;;
1959;SDS011;980;43.794;11.212;2022-11-18T03:59:34;10.50;;;10.50;;
1959;SDS011;980;43.794;11.212;2022-11-18T04:04:30;12.00;;;9.50;;
1959;SDS011;980;43.794;11.212;2022-11-18T04:07:10;14.00;;;12.75;;
1959;SDS011;980;43.794;11.212;2022-11-18T04:09:42;13.25;;;12.00;;
1959;SDS011;980;43.794;11.212;2022-11-18T04:12:10;16.50;;;16.50;;
1959;SDS011;980;43.794;11.212;2022-11-18T04:14:38;21.50;;;18.25;;
1959;SDS011;980;43.794;11.212;2022-11-18T04:17:04;17.00;;;14.00;;
1959;SDS011;980;43.794;11.212;2022-11-18T04:19:30;15.25;;;14.00;;
1959;SDS011;980;43.794;11.212;2022-11-18T04:21:55;20.50;;;17.00;;
1959;SDS011;980;43.794;11.212;2022-11-18T04:24:20;22.25;;;20.50;;
1959;SDS011;980;43.794;11.212;2022-11-18T04:26:46;21.00;;;18.00;;
1959;SDS011;980;43.794;11.212;2022-11-18T04:29:14;20.75;;;19.00;;
1959;SDS011;980;43.794;11.212;2022-11-18T04:31:39;17.50;;;16.00;;
1959;SDS011;980;43.794;11.212;2022-11-18T04:34:04;16.00;;;15.00;;
1959;SDS011;980;43.794;11.212;2022-11-18T04:36:30;17.00;;;17.00;;
1959;SDS011;980;43.794;11.212;2022-11-18T04:38:55;18.25;;;17.00;;
1959;SDS011;980;43.794;11.212;2022-11-18T04:41:20;20.00;;;18.25;;
1959;SDS011;980;43.794;11.212;2022-11-18T04:44:05;19.00;;;16.25;;
1959;SDS011;980;43.794;11.212;2022-11-18T04:46:37;12.50;;;12.50;;
1959;SDS011;980;43.794;11.212;2022-11-18T04:49:02;9.75;;;8.50;;
1959;SDS011;980;43.794;11.212;2022-11-18T04:51:28;8.00;;;8.00;;
1959;SDS011;980;43.794;11.212;2022-11-18T04:53:53;1.00;;;1.00;;
1959;SDS011;980;43.794;11.212;2022-11-18T04:56:18;8.00;;;8.00;;
1959;SDS011;980;43.794;11.212;2022-11-18T04:58:43;7.25;;;5.75;;
1959;SDS011;980;43.794;11.212;2022-11-18T05:01:09;6.00;;;6.00;;
1959;SDS011;980;43.794;11.212;2022-11-18T05:03:34;7.50;;;6.00;;
1959;SDS011;980;43.794;11.212;2022-11-18T05:06:00;6.00;;;6.00;;
1959;SDS011;980;43.794;11.212;2022-11-18T05:08:26;5.00;;;5.00;;
1959;SDS011;980;43.794;11.212;2022-11-18T05:10:51;6.00;;;6.00;;
1959;SDS011;980;43.794;11.212;2022-11-18T05:13:36;1.00;;;1.00;;
1959;SDS011;980;43.794;11.212;2022-11-18T05:16:08;3.50;;;3.50;;
1959;SDS011;980;43.794;11.212;2022-11-18T05:18:33;1.50;;;1.00;;
1959;SDS011;980;43.794;11.212;2022-11-18T05:21:03;0.75;;;0.75;;
1959;SDS011;980;43.794;11.212;2022-11-18T05:23:28;1.00;;;1.00;;
1959;SDS011;980;43.794;11.212;2022-11-18T05:25:54;0.25;;;0.25;;
1959;SDS011;980;43.794;11.212;2022-11-18T05:28:19;1.25;;;1.25;;
1959;SDS011;980;43.794;11.212;2022-11-18T05:30:45;3.00;;;2.00;;
1959;SDS011;980;43.794;11.212;2022-11-18T05:33:10;3.50;;;2.00;;
1959;SDS011;980;43.794;11.212;2022-11-18T05:35:35;1.50;;;1.50;;
1959;SDS011;980;43.794;11.212;2022-11-18T05:38:01;5.00;;;2.00;;
1959;SDS011;980;43.794;11.212;2022-11-18T05:40:26;2.00;;;2.00;;
1959;SDS011;980;43.794;11.212;2022-11-18T05:42:51;2.00;;;2.00;;
1959;SDS011;980;43.794;11.212;2022-11-18T05:45:35;4.00;;;2.00;;
1959;SDS011;980;43.794;11.212;2022-11-18T05:48:00;4.00;;;2.00;;
1959;SDS011;980;43.794;11.212;2022-11-18T05:50:28;1.00;;;1.00;;
1959;SDS011;980;43.794;11.212;2022-11-18T05:52:53;3.25;;;1.50;;
1959;SDS011;980;43.794;11.212;2022-11-18T05:55:18;1.25;;;1.25;;
1959;SDS011;980;43.794;11.212;2022-11-18T05:57:44;2.00;;;2.00;;
1959;SDS011;980;43.794;11.212;2022-11-18T06:00:10;3.00;;;1.50;;
1959;SDS011;980;43.794;11.212;2022-11-18T06:02:35;0.00;;;0.00;;
1959;SDS011;980;43.794;11.212;2022-11-18T06:05:01;1.00;;;1.00;;
1959;SDS011;980;43.794;11.212;2022-11-18T06:07:29;1.00;;;1.00;;
1959;SDS011;980;43.794;11.212;2022-11-18T06:09:57;1.00;;;1.00;;
1959;SDS011;980;43.794;11.212;2022-11-18T06:12:24;0.00;;;0.00;;
1959;SDS011;980;43.794;11.212;2022-11-18T06:14:52;2.00;;;0.75;;
1959;SDS011;980;43.794;11.212;2022-11-18T06:17:21;1.75;;;1.00;;
1959;SDS011;980;43.794;11.212;2022-11-18T06:19:48;0.00;;;0.00;;
1959;SDS011;980;43.794;11.212;2022-11-18T06:22:14;0.75;;;0.75;;
1959;SDS011;980;43.794;11.212;2022-11-18T06:24:39;1.00;;;1.00;;
1959;SDS011;980;43.794;11.212;2022-11-18T06:27:05;4.25;;;1.00;;
1959;SDS011;980;43.794;11.212;2022-11-18T06:29:31;4.00;;;1.25;;
1959;SDS011;980;43.794;11.212;2022-11-18T06:31:56;1.25;;;1.25;;
1959;SDS011;980;43.794;11.212;2022-11-18T06:34:21;1.50;;;1.50;;
1959;SDS011;980;43.794;11.212;2022-11-18T06:36:47;2.25;;;1.50;;
1959;SDS011;980;43.794;11.212;2022-11-18T06:39:12;2.00;;;2.00;;
1959;SDS011;980;43.794;11.212;2022-11-18T06:41:37;4.25;;;4.00;;
1959;SDS011;980;43.794;11.212;2022-11-18T06:44:02;5.25;;;4.75;;
1959;SDS011;980;43.794;11.212;2022-11-18T06:46:29;4.50;;;2.00;;
1959;SDS011;980;43.794;11.212;2022-11-18T06:49:13;3.00;;;3.00;;
1959;SDS011;980;43.794;11.212;2022-11-18T06:51:38;5.00;;;3.00;;
1959;SDS011;980;43.794;11.212;2022-11-18T06:54:04;1.75;;;1.75;;
1959;SDS011;980;43.794;11.212;2022-11-18T06:56:29;3.50;;;2.00;;
1959;SDS011;980;43.794;11.212;2022-11-18T06:58:56;4.25;;;2.00;;
1959;SDS011;980;43.794;11.212;2022-11-18T07:01:22;3.50;;;2.00;;
1959;SDS011;980;43.794;11.212;2022-11-18T07:03:49;8.00;;;8.00;;
1959;SDS011;980;43.794;11.212;2022-11-18T07:06:15;4.50;;;2.00;;
1959;SDS011;980;43.794;11.212;2022-11-18T07:08:41;4.75;;;1.75;;
1959;SDS011;980;43.794;11.212;2022-11-18T07:11:08;5.00;;;3.00;;
1959;SDS011;980;43.794;11.212;2022-11-18T07:13:34;7.50;;;7.50;;
1959;SDS011;980;43.794;11.212;2022-11-18T07:16:06;7.00;;;7.00;;
1959;SDS011;980;43.794;11.212;2022-11-18T07:18:32;3.00;;;3.00;;
1959;SDS011;980;43.794;11.212;2022-11-18T07:21:01;3.00;;;2.00;;
1959;SDS011;980;43.794;11.212;2022-11-18T07:23:28;2.25;;;1.50;;
1959;SDS011;980;43.794;11.212;2022-11-18T07:25:54;4.00;;;2.00;;
1959;SDS011;980;43.794;11.212;2022-11-18T07:28:20;3.00;;;3.00;;
1959;SDS011;980;43.794;11.212;2022-11-18T07:30:45;3.25;;;3.25;;
1959;SDS011;980;43.794;11.212;2022-11-18T07:33:10;5.25;;;4.00;;
1959;SDS011;980;43.794;11.212;2022-11-18T07:35:35;6.75;;;5.50;;
1959;SDS011;980;43.794;11.212;2022-11-18T07:38:01;4.00;;;4.00;;
1959;SDS011;980;43.794;11.212;2022-11-18T07:40:26;4.75;;;3.00;;
1959;SDS011;980;43.794;11.212;2022-11-18T07:42:52;3.25;;;2.50;;
1959;SDS011;980;43.794;11.212;2022-11-18T07:45:17;4.00;;;3.00;;
1959;SDS011;980;43.794;11.212;2022-11-18T07:47:42;5.75;;;5.00;;
1959;SDS011;980;43.794;11.212;2022-11-18T07:50:08;4.00;;;4.00;;
1959;SDS011;980;43.794;11.212;2022-11-18T07:52:33;4.00;;;4.00;;
1959;SDS011;980;43.794;11.212;2022-11-18T07:54:59;7.00;;;4.50;;
1959;SDS011;980;43.794;11.212;2022-11-18T07:57:24;3.25;;;3.25;;
1959;SDS011;980;43.794;11.212;2022-11-18T07:59:50;7.00;;;4.00;;
1959;SDS011;980;43.794;11.212;2022-11-18T08:02:15;6.00;;;4.50;;
1959;SDS011;980;43.794;11.212;2022-11-18T08:04:40;6.00;;;3.00;;
1959;SDS011;980;43.794;11.212;2022-11-18T08:07:08;4.00;;;4.00;;
1959;SDS011;980;43.794;11.212;2022-11-18T08:09:33;3.00;;;3.00;;
1959;SDS011;980;43.794;11.212;2022-11-18T08:11:58;9.50;;;6.00;;
1959;SDS011;980;43.794;11.212;2022-11-18T08:14:24;7.50;;;6.00;;
1959;SDS011;980;43.794;11.212;2022-11-18T08:16:49;4.00;;;4.00;;
1959;SDS011;980;43.794;11.212;2022-11-18T08:19:14;1.00;;;1.00;;
1959;SDS011;980;43.794;11.212;2022-11-18T08:21:40;3.75;;;2.00;;
1959;SDS011;980;43.794;11.212;2022-11-18T08:24:05;5.00;;;2.00;;
1959;SDS011;980;43.794;11.212;2022-11-18T08:26:31;1.25;;;1.25;;
1959;SDS011;980;43.794;11.212;2022-11-18T08:28:56;3.00;;;2.00;;
1959;SDS011;980;43.794;11.212;2022-11-18T08:31:22;1.00;;;1.00;;
1959;SDS011;980;43.794;11.212;2022-11-18T08:33:52;1.50;;;1.50;;
1959;SDS011;980;43.794;11.212;2022-11-18T08:36:20;2.00;;;1.00;;
1959;SDS011;980;43.794;11.212;2022-11-18T08:38:45;7.00;;;3.00;;
1959;SDS011;980;43.794;11.212;2022-11-18T08:41:24;2.50;;;2.00;;
1959;SDS011;980;43.794;11.212;2022-11-18T08:43:56;2.00;;;2.00;;
1959;SDS011;980;43.794;11.212;2022-11-18T08:46:21;3.00;;;2.00;;
1959;SDS011;980;43.794;11.212;2022-11-18T08:48:47;87.33;;;70.00;;
1959;SDS011;980;43.794;11.212;2022-11-18T08:51:12;9.00;;;6.00;;
1959;SDS011;980;43.794;11.212;2022-11-18T08:53:38;2.75;;;1.00;;
1959;SDS011;980;43.794;11.212;2022-11-18T08:56:03;3.00;;;2.00;;
1959;SDS011;980;43.794;11.212;2022-11-18T08:58:29;2.25;;;1.75;;
1959;SDS011;980;43.794;11.212;2022-11-18T09:00:54;3.00;;;2.50;;
1959;SDS011;980;43.794;11.212;2022-11-18T09:03:19;2.75;;;2.75;;
1959;SDS011;980;43.794;11.212;2022-11-18T09:05:45;3.00;;;3.00;;
1959;SDS011;980;43.794;11.212;2022-11-18T09:08:10;3.50;;;2.00;;
1959;SDS011;980;43.794;11.212;2022-11-18T09:10:36;3.50;;;2.50;;
1959;SDS011;980;43.794;11.212;2022-11-18T09:13:02;1.25;;;1.25;;
1959;SDS011;980;43.794;11.212;2022-11-18T09:15:27;0.50;;;0.25;;
1959;SDS011;980;43.794;11.212;2022-11-18T09:17:53;0.75;;;0.00;;
1959;SDS011;980;43.794;11.212;2022-11-18T09:20:20;0.75;;;0.00;;
1959;SDS011;980;43.794;11.212;2022-11-18T09:22:45;2.00;;;0.00;;
1959;SDS011;980;43.794;11.212;2022-11-18T09:25:10;1.00;;;1.00;;
1959;SDS011;980;43.794;11.212;2022-11-18T09:27:35;1.75;;;0.25;;
1959;SDS011;980;43.794;11.212;2022-11-18T09:30:01;2.00;;;0.00;;
1959;SDS011;980;43.794;11.212;2022-11-18T09:32:30;2.25;;;1.00;;
1959;SDS011;980;43.794;11.212;2022-11-18T09:34:56;2.00;;;0.00;;
1959;SDS011;980;43.794;11.212;2022-11-18T09:37:21;1.00;;;1.00;;
1959;SDS011;980;43.794;11.212;2022-11-18T09:39:47;1.00;;;0.00;;
1959;SDS011;980;43.794;11.212;2022-11-18T09:45:23;1.75;;;0.25;;
1959;SDS011;980;43.794;11.212;2022-11-18T09:48:12;0.00;;;0.00;;
1959;SDS011;980;43.794;11.212;2022-11-18T09:50:40;0.00;;;0.00;;
1959;SDS011;980;43.794;11.212;2022-11-18T09:53:13;2.25;;;1.00;;
1959;SDS011;980;43.794;11.212;2022-11-18T09:55:41;0.00;;;0.00;;
1959;SDS011;980;43.794;11.212;2022-11-18T09:58:10;1.00;;;0.00;;
1959;SDS011;980;43.794;11.212;2022-11-18T10:00:39;0.00;;;0.00;;
1959;SDS011;980;43.794;11.212;2022-11-18T10:03:27;0.00;;;0.00;;
1959;SDS011;980;43.794;11.212;2022-11-18T10:05:57;0.00;;;0.00;;
1959;SDS011;980;43.794;11.212;2022-11-18T10:11:04;0.50;;;0.00;;
1959;SDS011;980;43.794;11.212;2022-11-18T10:18:51;0.00;;;0.00;;
1959;SDS011;980;43.794;11.212;2022-11-18T10:21:33;5.25;;;0.75;;
1959;SDS011;980;43.794;11.212;2022-11-18T10:24:06;0.00;;;0.00;;
1959;SDS011;980;43.794;11.212;2022-11-18T10:26:37;1.00;;;0.00;;
1959;SDS011;980;43.794;11.212;2022-11-18T10:29:03;0.00;;;0.00;;
1959;SDS011;980;43.794;11.212;2022-11-18T10:31:35;1.75;;;1.00;;
1959;SDS011;980;43.794;11.212;2022-11-18T10:34:00;4.00;;;1.00;;
1959;SDS011;980;43.794;11.212;2022-11-18T10:36:27;1.75;;;0.00;;
1959;SDS011;980;43.794;11.212;2022-11-18T10:39:26;0.25;;;0.00;;
1959;SDS011;980;43.794;11.212;2022-11-18T10:41:46;0.00;;;0.00;;
1959;SDS011;980;43.794;11.212;2022-11-18T10:46:53;0.00;;;0.00;;
1959;SDS011;980;43.794;11.212;2022-11-18T10:49:18;0.00;;;0.00;;
1959;SDS011;980;43.794;11.212;2022-11-18T10:51:45;0.75;;;0.00;;
1959;SDS011;980;43.794;11.212;2022-11-18T10:54:18;0.00;;;0.00;;
1959;SDS011;980;43.794;11.212;2022-11-18T10:59:11;2.00;;;1.00;;
1959;SDS011;980;43.794;11.212;2022-11-18T11:01:42;0.75;;;0.75;;
1959;SDS011;980;43.794;11.212;2022-11-18T11:06:33;0.00;;;0.00;;
1959;SDS011;980;43.794;11.212;2022-11-18T11:09:00;0.75;;;0.00;;
1959;SDS011;980;43.794;11.212;2022-11-18T11:13:53;2.50;;;0.25;;
1959;SDS011;980;43.794;11.212;2022-11-18T11:16:20;0.00;;;0.00;;
1959;SDS011;980;43.794;11.212;2022-11-18T11:18:48;1.75;;;0.00;;
1959;SDS011;980;43.794;11.212;2022-11-18T11:21:15;1.25;;;0.00;;
1959;SDS011;980;43.794;11.212;2022-11-18T11:23:41;0.50;;;0.50;;
1959;SDS011;980;43.794;11.212;2022-11-18T11:26:09;1.33;;;0.00;;
1959;SDS011;980;43.794;11.212;2022-11-18T11:28:43;2.00;;;0.00;;
1959;SDS011;980;43.794;11.212;2022-11-18T11:31:17;1.00;;;0.00;;
1959;SDS011;980;43.794;11.212;2022-11-18T11:48:55;1.00;;;1.00;;
1959;SDS011;980;43.794;11.212;2022-11-18T11:56:26;2.75;;;1.00;;
1959;SDS011;980;43.794;11.212;2022-11-18T12:01:36;1.00;;;1.00;;
1959;SDS011;980;43.794;11.212;2022-11-18T12:06:46;4.75;;;1.25;;
1959;SDS011;980;43.794;11.212;2022-11-18T12:14:51;1.75;;;1.75;;
1959;SDS011;980;43.794;11.212;2022-11-18T12:17:20;1.00;;;1.00;;
1959;SDS011;980;43.794;11.212;2022-11-18T12:19:47;5.00;;;2.00;;
1959;SDS011;980;43.794;11.212;2022-11-18T12:22:12;1.50;;;1.50;;
1959;SDS011;980;43.794;11.212;2022-11-18T12:24:39;2.50;;;1.25;;
1959;SDS011;980;43.794;11.212;2022-11-18T12:32:37;3.00;;;2.00;;
1959;SDS011;980;43.794;11.212;2022-11-18T12:37:41;4.00;;;3.25;;
1959;SDS011;980;43.794;11.212;2022-11-18T12:40:08;1.75;;;1.75;;
1959;SDS011;980;43.794;11.212;2022-11-18T12:48:01;3.00;;;3.00;;
1959;SDS011;980;43.794;11.212;2022-11-18T12:53:52;7.50;;;4.75;;
1959;SDS011;980;43.794;11.212;2022-11-18T12:58:44;5.25;;;3.25;;
1959;SDS011;980;43.794;11.212;2022-11-18T13:01:10;4.00;;;3.25;;
1959;SDS011;980;43.794;11.212;2022-11-18T13:03:36;4.00;;;4.00;;
1959;SDS011;980;43.794;11.212;2022-11-18T13:06:05;6.25;;;4.25;;
1959;SDS011;980;43.794;11.212;2022-11-18T13:08:32;3.75;;;3.00;;
1959;SDS011;980;43.794;11.212;2022-11-18T13:11:01;5.00;;;5.00;;
1959;SDS011;980;43.794;11.212;2022-11-18T13:13:48;4.50;;;4.50;;
1959;SDS011;980;43.794;11.212;2022-11-18T13:16:34;3.75;;;3.00;;
1959;SDS011;980;43.794;11.212;2022-11-18T13:19:21;3.00;;;3.00;;
1959;SDS011;980;43.794;11.212;2022-11-18T13:21:52;3.25;;;3.25;;
1959;SDS011;980;43.794;11.212;2022-11-18T13:24:41;4.00;;;3.00;;
1959;SDS011;980;43.794;11.212;2022-11-18T13:27:07;6.00;;;3.00;;
1959;SDS011;980;43.794;11.212;2022-11-18T13:29:44;4.00;;;4.00;;
1959;SDS011;980;43.794;11.212;2022-11-18T13:34:47;5.25;;;3.00;;
1959;SDS011;980;43.794;11.212;2022-11-18T13:37:23;5.75;;;3.75;;
1959;SDS011;980;43.794;11.212;2022-11-18T13:39:49;4.25;;;2.25;;
1959;SDS011;980;43.794;11.212;2022-11-18T13:44:43;2.75;;;2.75;;
1959;SDS011;980;43.794;11.212;2022-11-18T13:52:06;8.25;;;4.25;;
1959;SDS011;980;43.794;11.212;2022-11-18T13:54:33;4.75;;;3.00;;
1959;SDS011;980;43.794;11.212;2022-11-18T13:56:59;5.50;;;2.00;;
1959;SDS011;980;43.794;11.212;2022-11-18T13:59:24;3.50;;;3.00;;
1959;SDS011;980;43.794;11.212;2022-11-18T14:01:53;1.00;;;1.00;;
1959;SDS011;980;43.794;11.212;2022-11-18T14:04:22;2.00;;;2.00;;
1959;SDS011;980;43.794;11.212;2022-11-18T14:06:49;3.00;;;1.00;;
1959;SDS011;980;43.794;11.212;2022-11-18T14:09:27;1.00;;;1.00;;
1959;SDS011;980;43.794;11.212;2022-11-18T14:14:31;2.25;;;1.75;;
1959;SDS011;980;43.794;11.212;2022-11-18T14:19:29;3.75;;;2.75;;
1959;SDS011;980;43.794;11.212;2022-11-18T14:22:05;2.25;;;1.25;;
1959;SDS011;980;43.794;11.212;2022-11-18T14:24:30;2.00;;;2.00;;
1959;SDS011;980;43.794;11.212;2022-11-18T14:26:56;2.25;;;1.75;;
1959;SDS011;980;43.794;11.212;2022-11-18T14:29:21;2.25;;;2.00;;
1959;SDS011;980;43.794;11.212;2022-11-18T14:34:30;2.75;;;2.75;;
1959;SDS011;980;43.794;11.212;2022-11-18T14:36:56;4.00;;;3.00;;
1959;SDS011;980;43.794;11.212;2022-11-18T14:39:26;3.00;;;3.00;;
1959;SDS011;980;43.794;11.212;2022-11-18T14:41:51;2.00;;;2.00;;
1959;SDS011;980;43.794;11.212;2022-11-18T14:44:17;4.00;;;2.00;;
1959;SDS011;980;43.794;11.212;2022-11-18T14:46:43;3.00;;;3.00;;
1959;SDS011;980;43.794;11.212;2022-11-18T14:49:11;2.00;;;2.00;;
1959;SDS011;980;43.794;11.212;2022-11-18T14:51:37;1.50;;;1.00;;
1959;SDS011;980;43.794;11.212;2022-11-18T14:54:02;5.75;;;3.00;;
1959;SDS011;980;43.794;11.212;2022-11-18T14:56:29;4.75;;;4.00;;
1959;SDS011;980;43.794;11.212;2022-11-18T14:58:54;2.25;;;2.00;;
1959;SDS011;980;43.794;11.212;2022-11-18T15:01:20;4.00;;;3.00;;
1959;SDS011;980;43.794;11.212;2022-11-18T15:03:46;4.25;;;3.25;;
1959;SDS011;980;43.794;11.212;2022-11-18T15:06:15;3.00;;;2.25;;
1959;SDS011;980;43.794;11.212;2022-11-18T15:08:41;2.00;;;2.00;;
1959;SDS011;980;43.794;11.212;2022-11-18T15:11:07;3.50;;;2.50;;
1959;SDS011;980;43.794;11.212;2022-11-18T15:13:32;8.00;;;3.75;;
1959;SDS011;980;43.794;11.212;2022-11-18T15:15:57;2.75;;;2.25;;
1959;SDS011;980;43.794;11.212;2022-11-18T15:18:23;4.00;;;2.75;;
1959;SDS011;980;43.794;11.212;2022-11-18T15:20:52;4.75;;;2.75;;
1959;SDS011;980;43.794;11.212;2022-11-18T15:23:17;4.00;;;2.00;;
1959;SDS011;980;43.794;11.212;2022-11-18T15:25:42;3.00;;;3.00;;
1959;SDS011;980;43.794;11.212;2022-11-18T15:28:10;5.00;;;3.25;;
1959;SDS011;980;43.794;11.212;2022-11-18T15:30:36;1.50;;;1.50;;
1959;SDS011;980;43.794;11.212;2022-11-18T15:33:02;4.25;;;3.00;;
1959;SDS011;980;43.794;11.212;2022-11-18T15:35:27;3.00;;;3.00;;
1959;SDS011;980;43.794;11.212;2022-11-18T15:37:52;6.00;;;4.00;;
1959;SDS011;980;43.794;11.212;2022-11-18T15:40:17;7.00;;;3.00;;
1959;SDS011;980;43.794;11.212;2022-11-18T15:42:43;3.00;;;3.00;;
1959;SDS011;980;43.794;11.212;2022-11-18T15:45:08;3.75;;;3.75;;
1959;SDS011;980;43.794;11.212;2022-11-18T15:47:33;6.25;;;3.25;;
1959;SDS011;980;43.794;11.212;2022-11-18T15:49:59;4.00;;;3.25;;
1959;SDS011;980;43.794;11.212;2022-11-18T15:52:24;5.00;;;3.00;;
1959;SDS011;980;43.794;11.212;2022-11-18T15:54:51;6.50;;;4.25;;
1959;SDS011;980;43.794;11.212;2022-11-18T15:57:16;2.00;;;1.75;;
1959;SDS011;980;43.794;11.212;2022-11-18T16:19:33;3.25;;;2.25;;
1959;SDS011;980;43.794;11.212;2022-11-18T16:21:58;2.50;;;1.00;;
1959;SDS011;980;43.794;11.212;2022-11-18T16:24:25;2.00;;;2.00;;
1959;SDS011;980;43.794;11.212;2022-11-18T16:26:51;2.00;;;2.00;;
1959;SDS011;980;43.794;11.212;2022-11-18T16:29:16;4.25;;;2.00;;
1959;SDS011;980;43.794;11.212;2022-11-18T16:31:42;4.50;;;2.50;;
1959;SDS011;980;43.794;11.212;2022-11-18T16:34:09;5.00;;;2.00;;
1959;SDS011;980;43.794;11.212;2022-11-18T16:36:35;3.50;;;1.00;;
1959;SDS011;980;43.794;11.212;2022-11-18T16:39:14;3.00;;;1.00;;
1959;SDS011;980;43.794;11.212;2022-11-18T16:41:40;1.25;;;1.25;;
1959;SDS011;980;43.794;11.212;2022-11-18T16:44:10;1.25;;;1.00;;
1959;SDS011;980;43.794;11.212;2022-11-18T16:46:37;1.00;;;1.00;;
1959;SDS011;980;43.794;11.212;2022-11-18T16:49:03;2.00;;;1.00;;
1959;SDS011;980;43.794;11.212;2022-11-18T16:51:29;1.25;;;1.00;;
1959;SDS011;980;43.794;11.212;2022-11-18T16:53:56;2.25;;;1.00;;
1959;SDS011;980;43.794;11.212;2022-11-18T16:56:23;6.00;;;1.00;;
1959;SDS011;980;43.794;11.212;2022-11-18T16:58:49;2.00;;;1.25;;
1959;SDS011;980;43.794;11.212;2022-11-18T17:01:14;1.00;;;1.00;;
1959;SDS011;980;43.794;11.212;2022-11-18T17:03:40;4.50;;;2.00;;
1959;SDS011;980;43.794;11.212;2022-11-18T17:06:05;2.00;;;1.00;;
1959;SDS011;980;43.794;11.212;2022-11-18T17:08:34;4.50;;;1.00;;
1959;SDS011;980;43.794;11.212;2022-11-18T17:11:06;1.75;;;1.75;;
1959;SDS011;980;43.794;11.212;2022-11-18T17:13:32;1.00;;;1.00;;
1959;SDS011;980;43.794;11.212;2022-11-18T17:15:57;2.00;;;2.00;;
1959;SDS011;980;43.794;11.212;2022-11-18T17:18:22;1.75;;;1.00;;
1959;SDS011;980;43.794;11.212;2022-11-18T17:20:48;6.00;;;3.00;;
1959;SDS011;980;43.794;11.212;2022-11-18T17:23:13;5.00;;;2.50;;
1959;SDS011;980;43.794;11.212;2022-11-18T17:25:38;6.25;;;1.25;;
1959;SDS011;980;43.794;11.212;2022-11-18T17:28:04;2.00;;;1.75;;
1959;SDS011;980;43.794;11.212;2022-11-18T17:30:29;2.50;;;2.00;;